sensor_id;sensor_type;location;lat;lon;timestamp;pressure;altitude;pressure_sealevel;temperature;humidity
27144;BME280;14672;50.250;8.312;2023-04-27T00:01:41;99041.84;;;8.60;57.41
27144;BME280;14672;50.250;8.312;2023-04-27T00:04:07;99038.75;;;8.55;57.43
27144;BME280;14672;50.250;8.312;2023-04-27T00:06:33;99043.00;;;8.46;57.95
27144;BME280;14672;50.250;8.312;2023-04-27T00:08:59;99036.00;;;8.51;57.54
27144;BME280;14672;50.250;8.312;2023-04-27T00:11:25;99036.25;;;8.57;57.32
27144;BME280;14672;50.250;8.312;2023-04-27T00:13:51;99041.59;;;8.55;57.24
27144;BME280;14672;50.250;8.312;2023-04-27T00:16:18;99030.34;;;8.51;57.35
27144;BME280;14672;50.250;8.312;2023-04-27T00:18:44;99026.97;;;8.56;57.61
27144;BME280;14672;50.250;8.312;2023-04-27T00:21:10;99026.44;;;8.45;57.36
27144;BME280;14672;50.250;8.312;2023-04-27T00:23:36;99022.47;;;8.42;58.06
27144;BME280;14672;50.250;8.312;2023-04-27T00:26:01;99025.47;;;8.35;57.50
27144;BME280;14672;50.250;8.312;2023-04-27T00:28:27;99022.72;;;8.32;57.41
27144;BME280;14672;50.250;8.312;2023-04-27T00:30:53;99024.00;;;8.27;57.23
27144;BME280;14672;50.250;8.312;2023-04-27T00:33:19;99017.78;;;8.16;57.86
27144;BME280;14672;50.250;8.312;2023-04-27T00:35:46;99022.22;;;8.17;57.57
27144;BME280;14672;50.250;8.312;2023-04-27T00:38:12;99014.78;;;8.07;57.75
27144;BME280;14672;50.250;8.312;2023-04-27T00:40:38;99013.25;;;8.02;57.56
27144;BME280;14672;50.250;8.312;2023-04-27T00:43:04;99017.59;;;8.07;57.53
27144;BME280;14672;50.250;8.312;2023-04-27T00:45:30;99019.78;;;7.99;57.56
27144;BME280;14672;50.250;8.312;2023-04-27T00:47:57;99027.97;;;7.94;57.58
27144;BME280;14672;50.250;8.312;2023-04-27T00:50:28;99032.19;;;7.86;58.12
27144;BME280;14672;50.250;8.312;2023-04-27T00:52:55;99035.41;;;7.88;57.85
27144;BME280;14672;50.250;8.312;2023-04-27T00:55:22;99023.38;;;7.84;58.34
27144;BME280;14672;50.250;8.312;2023-04-27T00:57:48;99020.38;;;7.91;58.14
27144;BME280;14672;50.250;8.312;2023-04-27T01:00:14;99036.06;;;7.95;57.43
27144;BME280;14672;50.250;8.312;2023-04-27T01:02:40;99040.91;;;7.95;58.06
27144;BME280;14672;50.250;8.312;2023-04-27T01:05:07;99044.78;;;8.01;57.23
27144;BME280;14672;50.250;8.312;2023-04-27T01:07:37;99039.72;;;7.92;57.93
27144;BME280;14672;50.250;8.312;2023-04-27T01:10:05;99042.72;;;7.85;58.13
27144;BME280;14672;50.250;8.312;2023-04-27T01:12:31;99042.53;;;7.76;58.17
27144;BME280;14672;50.250;8.312;2023-04-27T01:14:58;99040.75;;;7.82;57.52
27144;BME280;14672;50.250;8.312;2023-04-27T01:17:23;99039.31;;;7.74;57.56
27144;BME280;14672;50.250;8.312;2023-04-27T01:19:49;99037.50;;;7.84;57.74
27144;BME280;14672;50.250;8.312;2023-04-27T01:22:16;99032.34;;;7.79;57.88
27144;BME280;14672;50.250;8.312;2023-04-27T01:24:42;99041.19;;;7.81;57.73
27144;BME280;14672;50.250;8.312;2023-04-27T01:27:08;99046.94;;;7.77;57.73
27144;BME280;14672;50.250;8.312;2023-04-27T01:29:34;99047.66;;;7.81;57.72
27144;BME280;14672;50.250;8.312;2023-04-27T01:31:59;99047.56;;;7.85;57.72
27144;BME280;14672;50.250;8.312;2023-04-27T01:34:25;99044.41;;;7.83;57.88
27144;BME280;14672;50.250;8.312;2023-04-27T01:36:51;99052.00;;;7.86;58.12
27144;BME280;14672;50.250;8.312;2023-04-27T01:39:17;99047.38;;;7.76;57.88
27144;BME280;14672;50.250;8.312;2023-04-27T01:41:43;99053.38;;;7.78;57.84
27144;BME280;14672;50.250;8.312;2023-04-27T01:44:08;99056.66;;;7.76;57.71
27144;BME280;14672;50.250;8.312;2023-04-27T01:46:34;99058.31;;;7.74;58.60
27144;BME280;14672;50.250;8.312;2023-04-27T01:49:00;99060.06;;;7.68;58.93
27144;BME280;14672;50.250;8.312;2023-04-27T01:51:26;99057.25;;;7.68;59.10
27144;BME280;14672;50.250;8.312;2023-04-27T01:53:52;99054.84;;;7.66;59.17
27144;BME280;14672;50.250;8.312;2023-04-27T01:56:17;99054.03;;;7.66;59.44
27144;BME280;14672;50.250;8.312;2023-04-27T01:58:43;99061.28;;;7.67;59.39
27144;BME280;14672;50.250;8.312;2023-04-27T02:01:09;99071.81;;;7.66;59.62
27144;BME280;14672;50.250;8.312;2023-04-27T02:03:35;99068.63;;;7.64;59.89
27144;BME280;14672;50.250;8.312;2023-04-27T02:06:01;99051.78;;;7.57;59.64
27144;BME280;14672;50.250;8.312;2023-04-27T02:08:27;99064.28;;;7.60;59.44
27144;BME280;14672;50.250;8.312;2023-04-27T02:10:53;99069.94;;;7.60;59.85
27144;BME280;14672;50.250;8.312;2023-04-27T02:13:18;99062.16;;;7.64;59.52
27144;BME280;14672;50.250;8.312;2023-04-27T02:15:44;99064.28;;;7.60;59.59
27144;BME280;14672;50.250;8.312;2023-04-27T02:18:10;99074.69;;;7.63;59.53
27144;BME280;14672;50.250;8.312;2023-04-27T02:20:36;99069.47;;;7.61;59.45
27144;BME280;14672;50.250;8.312;2023-04-27T02:23:01;99076.88;;;7.55;59.63
27144;BME280;14672;50.250;8.312;2023-04-27T02:25:28;99072.75;;;7.60;59.27
27144;BME280;14672;50.250;8.312;2023-04-27T03:19:53;99072.53;;;7.50;61.02
27144;BME280;14672;50.250;8.312;2023-04-27T03:22:19;99072.09;;;7.52;60.73
27144;BME280;14672;50.250;8.312;2023-04-27T03:24:45;99065.19;;;7.53;61.14
27144;BME280;14672;50.250;8.312;2023-04-27T03:27:11;99059.84;;;7.59;60.94
27144;BME280;14672;50.250;8.312;2023-04-27T03:29:37;99053.03;;;7.56;61.07
27144;BME280;14672;50.250;8.312;2023-04-27T03:32:03;99054.09;;;7.62;60.67
27144;BME280;14672;50.250;8.312;2023-04-27T03:34:30;99046.06;;;7.61;60.33
27144;BME280;14672;50.250;8.312;2023-04-27T03:36:56;99048.88;;;7.61;60.92
27144;BME280;14672;50.250;8.312;2023-04-27T03:39:22;99048.53;;;7.59;60.62
27144;BME280;14672;50.250;8.312;2023-04-27T03:41:48;99047.22;;;7.63;60.98
27144;BME280;14672;50.250;8.312;2023-04-27T03:44:14;99043.94;;;7.65;60.47
27144;BME280;14672;50.250;8.312;2023-04-27T03:46:39;99044.81;;;7.62;60.70
27144;BME280;14672;50.250;8.312;2023-04-27T03:49:05;99048.53;;;7.59;60.50
27144;BME280;14672;50.250;8.312;2023-04-27T03:51:32;99050.41;;;7.65;60.38
27144;BME280;14672;50.250;8.312;2023-04-27T03:53:58;99046.44;;;7.63;60.38
27144;BME280;14672;50.250;8.312;2023-04-27T03:56:24;99061.06;;;7.57;60.13
27144;BME280;14672;50.250;8.312;2023-04-27T03:58:50;99056.72;;;7.53;60.31
27144;BME280;14672;50.250;8.312;2023-04-27T04:01:16;99060.19;;;7.61;60.00
27144;BME280;14672;50.250;8.312;2023-04-27T04:03:43;99068.09;;;7.49;59.74
27144;BME280;14672;50.250;8.312;2023-04-27T04:06:09;99064.38;;;7.52;59.87
27144;BME280;14672;50.250;8.312;2023-04-27T04:08:36;99074.19;;;7.48;59.66
27144;BME280;14672;50.250;8.312;2023-04-27T04:11:02;99072.81;;;7.36;59.95
27144;BME280;14672;50.250;8.312;2023-04-27T04:13:28;99072.72;;;7.40;59.64
27144;BME280;14672;50.250;8.312;2023-04-27T04:16:08;99081.41;;;7.49;59.73
27144;BME280;14672;50.250;8.312;2023-04-27T04:18:35;99079.13;;;7.44;59.90
27144;BME280;14672;50.250;8.312;2023-04-27T04:21:02;99075.84;;;7.45;59.72
27144;BME280;14672;50.250;8.312;2023-04-27T04:23:27;99069.84;;;7.43;59.81
27144;BME280;14672;50.250;8.312;2023-04-27T04:25:56;99079.69;;;7.35;59.05
27144;BME280;14672;50.250;8.312;2023-04-27T04:28:23;99083.06;;;7.27;59.10
27144;BME280;14672;50.250;8.312;2023-04-27T04:30:50;99081.53;;;7.22;59.51
27144;BME280;14672;50.250;8.312;2023-04-27T04:33:16;99073.91;;;7.19;59.81
27144;BME280;14672;50.250;8.312;2023-04-27T04:35:42;99077.97;;;7.18;59.42
27144;BME280;14672;50.250;8.312;2023-04-27T04:38:13;99078.97;;;7.08;59.65
27144;BME280;14672;50.250;8.312;2023-04-27T04:40:39;99087.78;;;7.10;59.68
27144;BME280;14672;50.250;8.312;2023-04-27T04:43:06;99088.53;;;7.14;59.25
27144;BME280;14672;50.250;8.312;2023-04-27T04:45:32;99088.72;;;7.03;59.11
27144;BME280;14672;50.250;8.312;2023-04-27T04:47:58;99080.66;;;7.02;58.82
27144;BME280;14672;50.250;8.312;2023-04-27T04:50:25;99088.00;;;6.99;59.40
27144;BME280;14672;50.250;8.312;2023-04-27T04:52:51;99086.38;;;6.98;59.50
27144;BME280;14672;50.250;8.312;2023-04-27T04:55:17;99091.22;;;6.98;59.25
27144;BME280;14672;50.250;8.312;2023-04-27T04:57:43;99088.88;;;6.93;59.91
27144;BME280;14672;50.250;8.312;2023-04-27T05:00:09;99096.13;;;6.94;59.82
27144;BME280;14672;50.250;8.312;2023-04-27T05:02:41;99106.69;;;6.90;60.35
27144;BME280;14672;50.250;8.312;2023-04-27T05:05:07;99109.25;;;6.81;60.07
27144;BME280;14672;50.250;8.312;2023-04-27T05:07:34;99113.94;;;6.91;60.02
27144;BME280;14672;50.250;8.312;2023-04-27T05:10:00;99107.50;;;6.90;60.16
27144;BME280;14672;50.250;8.312;2023-04-27T05:12:26;99111.47;;;6.93;60.23
27144;BME280;14672;50.250;8.312;2023-04-27T05:14:52;99108.56;;;7.00;60.40
27144;BME280;14672;50.250;8.312;2023-04-27T05:17:17;99112.28;;;6.93;60.07
27144;BME280;14672;50.250;8.312;2023-04-27T05:19:43;99111.25;;;7.07;60.05
27144;BME280;14672;50.250;8.312;2023-04-27T05:22:09;99112.88;;;7.08;60.23
27144;BME280;14672;50.250;8.312;2023-04-27T05:24:35;99114.09;;;7.07;60.70
27144;BME280;14672;50.250;8.312;2023-04-27T05:27:01;99115.19;;;7.13;60.84
27144;BME280;14672;50.250;8.312;2023-04-27T05:29:28;99111.53;;;7.16;60.52
27144;BME280;14672;50.250;8.312;2023-04-27T05:31:53;99115.84;;;7.21;60.87
27144;BME280;14672;50.250;8.312;2023-04-27T05:34:19;99113.66;;;7.32;60.60
27144;BME280;14672;50.250;8.312;2023-04-27T05:36:45;99115.13;;;7.40;60.96
27144;BME280;14672;50.250;8.312;2023-04-27T05:39:13;99111.66;;;7.52;60.78
27144;BME280;14672;50.250;8.312;2023-04-27T05:41:39;99109.13;;;7.57;61.13
27144;BME280;14672;50.250;8.312;2023-04-27T05:44:05;99108.88;;;7.72;60.73
27144;BME280;14672;50.250;8.312;2023-04-27T05:46:32;99117.56;;;7.81;60.26
27144;BME280;14672;50.250;8.312;2023-04-27T05:48:58;99129.81;;;7.94;60.13
27144;BME280;14672;50.250;8.312;2023-04-27T05:51:24;99123.28;;;7.97;60.10
27144;BME280;14672;50.250;8.312;2023-04-27T05:53:50;99113.34;;;8.09;60.04
27144;BME280;14672;50.250;8.312;2023-04-27T05:56:20;99118.41;;;8.17;59.94
27144;BME280;14672;50.250;8.312;2023-04-27T05:58:46;99115.44;;;8.24;59.53
27144;BME280;14672;50.250;8.312;2023-04-27T06:01:12;99119.72;;;8.32;59.14
27144;BME280;14672;50.250;8.312;2023-04-27T06:03:38;99117.63;;;8.36;59.30
27144;BME280;14672;50.250;8.312;2023-04-27T06:06:04;99121.66;;;8.55;58.46
27144;BME280;14672;50.250;8.312;2023-04-27T06:08:30;99116.13;;;8.68;57.74
27144;BME280;14672;50.250;8.312;2023-04-27T06:10:56;99127.28;;;8.75;57.29
27144;BME280;14672;50.250;8.312;2023-04-27T06:13:22;99124.63;;;8.84;57.43
27144;BME280;14672;50.250;8.312;2023-04-27T06:15:47;99129.25;;;8.94;57.59
27144;BME280;14672;50.250;8.312;2023-04-27T06:18:13;99134.72;;;9.01;57.54
27144;BME280;14672;50.250;8.312;2023-04-27T06:20:39;99135.25;;;9.12;57.24
27144;BME280;14672;50.250;8.312;2023-04-27T06:23:06;99138.91;;;9.13;57.75
27144;BME280;14672;50.250;8.312;2023-04-27T06:25:32;99133.84;;;9.20;58.37
27144;BME280;14672;50.250;8.312;2023-04-27T06:27:59;99131.91;;;9.33;58.55
27144;BME280;14672;50.250;8.312;2023-04-27T06:30:25;99143.66;;;9.48;57.82
27144;BME280;14672;50.250;8.312;2023-04-27T06:32:51;99138.97;;;9.58;57.16
27144;BME280;14672;50.250;8.312;2023-04-27T06:35:17;99145.34;;;9.62;56.72
27144;BME280;14672;50.250;8.312;2023-04-27T06:37:44;99137.00;;;9.71;56.82
27144;BME280;14672;50.250;8.312;2023-04-27T06:40:10;99144.25;;;9.72;55.57
27144;BME280;14672;50.250;8.312;2023-04-27T06:42:36;99140.22;;;9.85;55.33
27144;BME280;14672;50.250;8.312;2023-04-27T06:45:02;99141.25;;;9.91;55.44
27144;BME280;14672;50.250;8.312;2023-04-27T06:47:29;99135.31;;;10.02;56.12
27144;BME280;14672;50.250;8.312;2023-04-27T06:49:55;99146.66;;;10.02;55.58
27144;BME280;14672;50.250;8.312;2023-04-27T06:52:21;99145.53;;;10.12;55.54
27144;BME280;14672;50.250;8.312;2023-04-27T06:54:47;99140.59;;;10.16;55.87
27144;BME280;14672;50.250;8.312;2023-04-27T06:57:13;99144.50;;;10.22;55.97
27144;BME280;14672;50.250;8.312;2023-04-27T06:59:39;99149.94;;;10.29;55.45
27144;BME280;14672;50.250;8.312;2023-04-27T07:02:05;99144.97;;;10.33;55.77
27144;BME280;14672;50.250;8.312;2023-04-27T07:04:32;99144.53;;;10.35;55.94
27144;BME280;14672;50.250;8.312;2023-04-27T07:06:58;99145.69;;;10.50;55.38
27144;BME280;14672;50.250;8.312;2023-04-27T07:09:24;99139.78;;;10.57;55.41
27144;BME280;14672;50.250;8.312;2023-04-27T07:11:49;99148.31;;;10.70;55.11
27144;BME280;14672;50.250;8.312;2023-04-27T07:14:15;99137.97;;;10.76;55.46
27144;BME280;14672;50.250;8.312;2023-04-27T07:16:41;99139.69;;;10.86;55.60
27144;BME280;14672;50.250;8.312;2023-04-27T07:19:09;99138.78;;;10.89;55.13
27144;BME280;14672;50.250;8.312;2023-04-27T07:21:35;99131.50;;;11.01;54.83
27144;BME280;14672;50.250;8.312;2023-04-27T07:24:02;99125.38;;;11.02;54.81
27144;BME280;14672;50.250;8.312;2023-04-27T07:26:29;99126.50;;;11.17;54.65
27144;BME280;14672;50.250;8.312;2023-04-27T07:28:57;99137.19;;;11.26;54.25
27144;BME280;14672;50.250;8.312;2023-04-27T07:31:23;99139.66;;;11.24;54.48
27144;BME280;14672;50.250;8.312;2023-04-27T07:33:48;99132.50;;;11.32;53.82
27144;BME280;14672;50.250;8.312;2023-04-27T07:36:14;99130.78;;;11.35;53.48
27144;BME280;14672;50.250;8.312;2023-04-27T07:38:40;99130.88;;;11.44;53.13
27144;BME280;14672;50.250;8.312;2023-04-27T07:41:06;99129.72;;;11.54;52.52
27144;BME280;14672;50.250;8.312;2023-04-27T07:43:33;99125.25;;;11.65;53.11
27144;BME280;14672;50.250;8.312;2023-04-27T07:46:00;99122.72;;;11.67;53.41
27144;BME280;14672;50.250;8.312;2023-04-27T07:48:27;99114.44;;;11.73;51.71
27144;BME280;14672;50.250;8.312;2023-04-27T07:50:55;99112.44;;;11.83;50.74
27144;BME280;14672;50.250;8.312;2023-04-27T07:53:22;99112.34;;;11.86;50.82
27144;BME280;14672;50.250;8.312;2023-04-27T07:55:48;99113.41;;;12.01;50.47
27144;BME280;14672;50.250;8.312;2023-04-27T07:58:14;99108.13;;;12.12;50.57
27144;BME280;14672;50.250;8.312;2023-04-27T08:00:40;99108.91;;;12.13;50.65
27144;BME280;14672;50.250;8.312;2023-04-27T08:03:06;99109.31;;;12.24;50.38
27144;BME280;14672;50.250;8.312;2023-04-27T08:05:32;99104.25;;;12.28;49.83
27144;BME280;14672;50.250;8.312;2023-04-27T08:07:58;99107.97;;;12.38;49.50
27144;BME280;14672;50.250;8.312;2023-04-27T08:10:24;99108.63;;;12.42;49.71
27144;BME280;14672;50.250;8.312;2023-04-27T08:12:49;99111.84;;;12.53;49.51
27144;BME280;14672;50.250;8.312;2023-04-27T08:15:16;99111.13;;;12.61;49.10
27144;BME280;14672;50.250;8.312;2023-04-27T08:17:42;99097.47;;;12.56;48.44
27144;BME280;14672;50.250;8.312;2023-04-27T08:20:09;99098.78;;;12.64;48.32
27144;BME280;14672;50.250;8.312;2023-04-27T08:22:39;99105.03;;;12.81;48.58
27144;BME280;14672;50.250;8.312;2023-04-27T08:25:06;99093.28;;;12.79;48.67
27144;BME280;14672;50.250;8.312;2023-04-27T08:27:36;99094.25;;;12.76;48.13
27144;BME280;14672;50.250;8.312;2023-04-27T08:30:02;99089.69;;;12.88;47.53
27144;BME280;14672;50.250;8.312;2023-04-27T08:32:28;99092.72;;;12.93;47.50
27144;BME280;14672;50.250;8.312;2023-04-27T08:34:54;99087.84;;;13.03;46.44
27144;BME280;14672;50.250;8.312;2023-04-27T08:37:19;99078.22;;;13.09;46.68
27144;BME280;14672;50.250;8.312;2023-04-27T08:39:47;99077.78;;;13.20;46.18
27144;BME280;14672;50.250;8.312;2023-04-27T08:42:13;99090.63;;;13.34;46.08
27144;BME280;14672;50.250;8.312;2023-04-27T08:44:40;99089.88;;;13.42;45.67
27144;BME280;14672;50.250;8.312;2023-04-27T08:47:07;99092.72;;;13.42;44.47
27144;BME280;14672;50.250;8.312;2023-04-27T08:49:34;99091.63;;;13.58;44.57
27144;BME280;14672;50.250;8.312;2023-04-27T08:52:01;99089.13;;;13.60;44.04
27144;BME280;14672;50.250;8.312;2023-04-27T08:54:26;99087.84;;;13.70;43.88
27144;BME280;14672;50.250;8.312;2023-04-27T08:56:52;99086.91;;;13.73;43.12
27144;BME280;14672;50.250;8.312;2023-04-27T08:59:18;99087.88;;;13.88;42.82
27144;BME280;14672;50.250;8.312;2023-04-27T09:01:45;99079.59;;;13.90;42.32
27144;BME280;14672;50.250;8.312;2023-04-27T09:04:13;99079.91;;;14.01;42.37
27144;BME280;14672;50.250;8.312;2023-04-27T09:06:39;99074.81;;;14.05;42.74
27144;BME280;14672;50.250;8.312;2023-04-27T09:09:05;99074.19;;;14.10;42.14
27144;BME280;14672;50.250;8.312;2023-04-27T09:11:37;99075.94;;;14.17;41.66
27144;BME280;14672;50.250;8.312;2023-04-27T09:14:24;99073.22;;;14.23;41.68
27144;BME280;14672;50.250;8.312;2023-04-27T09:16:56;99072.75;;;14.15;40.82
27144;BME280;14672;50.250;8.312;2023-04-27T09:19:28;99064.97;;;14.25;40.82
27144;BME280;14672;50.250;8.312;2023-04-27T09:22:09;99065.13;;;14.39;40.34
27144;BME280;14672;50.250;8.312;2023-04-27T09:24:36;99065.91;;;14.40;40.18
27144;BME280;14672;50.250;8.312;2023-04-27T09:27:03;99073.97;;;14.50;40.41
27144;BME280;14672;50.250;8.312;2023-04-27T09:29:37;99074.13;;;14.56;41.43
27144;BME280;14672;50.250;8.312;2023-04-27T09:32:18;99069.66;;;14.64;40.14
27144;BME280;14672;50.250;8.312;2023-04-27T09:34:47;99058.53;;;14.57;40.00
27144;BME280;14672;50.250;8.312;2023-04-27T09:37:13;99063.75;;;14.68;40.58
27144;BME280;14672;50.250;8.312;2023-04-27T09:39:41;99055.28;;;14.82;41.06
27144;BME280;14672;50.250;8.312;2023-04-27T09:42:07;99059.19;;;14.94;40.96
27144;BME280;14672;50.250;8.312;2023-04-27T09:44:34;99048.72;;;14.91;39.74
27144;BME280;14672;50.250;8.312;2023-04-27T09:47:00;99044.06;;;15.02;40.68
27144;BME280;14672;50.250;8.312;2023-04-27T09:49:27;99051.16;;;15.16;40.56
27144;BME280;14672;50.250;8.312;2023-04-27T09:51:56;99047.34;;;15.34;41.96
27144;BME280;14672;50.250;8.312;2023-04-27T09:54:26;99040.59;;;15.46;41.05
27144;BME280;14672;50.250;8.312;2023-04-27T10:02:48;99024.13;;;15.79;40.07
27144;BME280;14672;50.250;8.312;2023-04-27T10:05:38;99021.88;;;15.83;39.32
27144;BME280;14672;50.250;8.312;2023-04-27T10:08:08;99025.75;;;16.10;40.82
27144;BME280;14672;50.250;8.312;2023-04-27T10:11:17;99028.03;;;16.35;41.54
27144;BME280;14672;50.250;8.312;2023-04-27T10:13:52;99026.38;;;16.43;41.52
27144;BME280;14672;50.250;8.312;2023-04-27T10:16:19;99023.28;;;16.47;39.28
27144;BME280;14672;50.250;8.312;2023-04-27T10:18:54;99021.44;;;16.58;38.44
27144;BME280;14672;50.250;8.312;2023-04-27T10:21:21;99017.94;;;16.54;37.35
27144;BME280;14672;50.250;8.312;2023-04-27T10:23:50;99026.53;;;16.54;37.69
27144;BME280;14672;50.250;8.312;2023-04-27T10:26:26;99015.59;;;16.67;39.08
27144;BME280;14672;50.250;8.312;2023-04-27T10:29:18;99011.06;;;16.96;38.80
27144;BME280;14672;50.250;8.312;2023-04-27T10:31:47;99003.19;;;17.11;39.23
27144;BME280;14672;50.250;8.312;2023-04-27T10:34:17;99005.00;;;17.28;39.20
27144;BME280;14672;50.250;8.312;2023-04-27T10:36:43;99004.06;;;17.37;37.93
27144;BME280;14672;50.250;8.312;2023-04-27T10:39:20;99005.34;;;17.56;38.16
27144;BME280;14672;50.250;8.312;2023-04-27T10:41:55;99007.63;;;17.67;37.20
27144;BME280;14672;50.250;8.312;2023-04-27T10:44:32;98999.56;;;17.91;37.65
27144;BME280;14672;50.250;8.312;2023-04-27T10:47:15;99001.53;;;18.05;38.32
27144;BME280;14672;50.250;8.312;2023-04-27T10:49:42;98997.69;;;18.14;37.30
27144;BME280;14672;50.250;8.312;2023-04-27T10:52:08;98996.84;;;18.08;36.54
27144;BME280;14672;50.250;8.312;2023-04-27T10:54:34;99001.28;;;18.09;36.23
27144;BME280;14672;50.250;8.312;2023-04-27T10:57:08;99007.44;;;18.22;36.52
27144;BME280;14672;50.250;8.312;2023-04-27T10:59:49;98985.56;;;18.30;36.85
27144;BME280;14672;50.250;8.312;2023-04-27T11:02:15;98986.72;;;18.44;37.20
27144;BME280;14672;50.250;8.312;2023-04-27T11:04:41;98980.88;;;18.58;36.15
27144;BME280;14672;50.250;8.312;2023-04-27T11:07:08;98995.50;;;18.60;36.02
27144;BME280;14672;50.250;8.312;2023-04-27T11:09:36;98986.16;;;18.65;36.85
27144;BME280;14672;50.250;8.312;2023-04-27T11:12:06;98987.63;;;18.55;35.26
27144;BME280;14672;50.250;8.312;2023-04-27T11:14:37;98986.31;;;18.56;35.62
27144;BME280;14672;50.250;8.312;2023-04-27T11:17:03;98974.09;;;18.61;35.12
27144;BME280;14672;50.250;8.312;2023-04-27T11:19:29;98972.63;;;18.77;35.80
27144;BME280;14672;50.250;8.312;2023-04-27T11:22:04;98981.09;;;18.92;36.96
27144;BME280;14672;50.250;8.312;2023-04-27T11:24:32;98976.66;;;18.96;34.36
27144;BME280;14672;50.250;8.312;2023-04-27T11:26:58;98968.31;;;18.98;34.86
27144;BME280;14672;50.250;8.312;2023-04-27T11:29:23;98974.88;;;18.99;34.78
27144;BME280;14672;50.250;8.312;2023-04-27T11:31:50;98980.16;;;19.06;34.59
27144;BME280;14672;50.250;8.312;2023-04-27T11:34:24;98974.44;;;19.17;33.85
27144;BME280;14672;50.250;8.312;2023-04-27T11:37:04;98964.03;;;19.25;33.91
27144;BME280;14672;50.250;8.312;2023-04-27T11:39:36;98966.00;;;19.50;35.41
27144;BME280;14672;50.250;8.312;2023-04-27T11:42:26;98957.72;;;19.21;32.86
27144;BME280;14672;50.250;8.312;2023-04-27T11:45:02;98959.75;;;19.15;32.58
27144;BME280;14672;50.250;8.312;2023-04-27T11:47:33;98961.38;;;19.21;32.40
27144;BME280;14672;50.250;8.312;2023-04-27T11:50:03;98955.25;;;19.45;33.21
27144;BME280;14672;50.250;8.312;2023-04-27T11:52:31;98948.97;;;19.52;33.64
27144;BME280;14672;50.250;8.312;2023-04-27T11:54:59;98949.41;;;19.34;32.70
27144;BME280;14672;50.250;8.312;2023-04-27T11:57:31;98950.56;;;19.53;33.18
27144;BME280;14672;50.250;8.312;2023-04-27T12:00:00;98952.41;;;19.67;32.80
27144;BME280;14672;50.250;8.312;2023-04-27T12:02:29;98955.84;;;19.72;33.01
27144;BME280;14672;50.250;8.312;2023-04-27T12:04:58;98940.69;;;19.88;34.10
27144;BME280;14672;50.250;8.312;2023-04-27T12:07:23;98943.84;;;19.90;32.85
27144;BME280;14672;50.250;8.312;2023-04-27T12:09:49;98943.59;;;20.04;33.57
27144;BME280;14672;50.250;8.312;2023-04-27T12:12:15;98945.97;;;20.28;34.41
27144;BME280;14672;50.250;8.312;2023-04-27T12:14:44;98942.34;;;20.44;33.93
27144;BME280;14672;50.250;8.312;2023-04-27T12:17:10;98940.22;;;20.17;32.83
27144;BME280;14672;50.250;8.312;2023-04-27T12:19:36;98932.88;;;20.27;32.62
27144;BME280;14672;50.250;8.312;2023-04-27T12:22:04;98937.09;;;20.48;33.89
27144;BME280;14672;50.250;8.312;2023-04-27T12:24:30;98939.72;;;20.57;34.04
27144;BME280;14672;50.250;8.312;2023-04-27T12:26:57;98938.38;;;20.58;32.96
27144;BME280;14672;50.250;8.312;2023-04-27T12:29:24;98933.94;;;20.35;31.16
27144;BME280;14672;50.250;8.312;2023-04-27T12:31:50;98925.28;;;20.57;32.43
27144;BME280;14672;50.250;8.312;2023-04-27T12:34:16;98925.78;;;20.73;32.67
27144;BME280;14672;50.250;8.312;2023-04-27T12:36:42;98930.47;;;20.87;32.50
27144;BME280;14672;50.250;8.312;2023-04-27T12:39:18;98920.75;;;21.01;32.54
27144;BME280;14672;50.250;8.312;2023-04-27T12:41:48;98907.84;;;21.19;33.10
27144;BME280;14672;50.250;8.312;2023-04-27T12:44:16;98911.44;;;21.36;32.31
27144;BME280;14672;50.250;8.312;2023-04-27T12:46:42;98906.41;;;21.47;31.86
27144;BME280;14672;50.250;8.312;2023-04-27T12:49:09;98905.28;;;21.62;31.83
27144;BME280;14672;50.250;8.312;2023-04-27T12:51:36;98902.13;;;21.65;32.13
27144;BME280;14672;50.250;8.312;2023-04-27T12:54:03;98902.41;;;21.62;32.39
27144;BME280;14672;50.250;8.312;2023-04-27T12:56:29;98897.00;;;21.41;32.31
27144;BME280;14672;50.250;8.312;2023-04-27T12:58:56;98905.03;;;21.54;32.21
27144;BME280;14672;50.250;8.312;2023-04-27T13:01:22;98907.47;;;21.44;31.08
27144;BME280;14672;50.250;8.312;2023-04-27T13:03:59;98899.50;;;21.62;31.75
27144;BME280;14672;50.250;8.312;2023-04-27T13:06:27;98895.75;;;21.72;32.37
27144;BME280;14672;50.250;8.312;2023-04-27T13:08:53;98889.78;;;21.59;31.33
27144;BME280;14672;50.250;8.312;2023-04-27T13:11:19;98896.06;;;21.63;30.66
27144;BME280;14672;50.250;8.312;2023-04-27T13:13:45;98899.38;;;21.84;30.87
27144;BME280;14672;50.250;8.312;2023-04-27T13:16:12;98893.28;;;21.87;31.13
27144;BME280;14672;50.250;8.312;2023-04-27T13:18:39;98883.53;;;21.96;31.75
27144;BME280;14672;50.250;8.312;2023-04-27T13:21:06;98884.22;;;22.08;31.22
27144;BME280;14672;50.250;8.312;2023-04-27T13:23:33;98896.50;;;22.19;31.55
27144;BME280;14672;50.250;8.312;2023-04-27T13:25:59;98886.09;;;22.05;31.39
27144;BME280;14672;50.250;8.312;2023-04-27T13:28:25;98889.72;;;22.11;31.04
27144;BME280;14672;50.250;8.312;2023-04-27T13:30:51;98877.69;;;22.01;30.21
27144;BME280;14672;50.250;8.312;2023-04-27T13:33:17;98885.25;;;22.10;30.98
27144;BME280;14672;50.250;8.312;2023-04-27T13:35:43;98885.75;;;22.14;30.43
27144;BME280;14672;50.250;8.312;2023-04-27T13:38:08;98883.41;;;22.13;30.74
27144;BME280;14672;50.250;8.312;2023-04-27T13:40:34;98884.72;;;22.12;29.78
27144;BME280;14672;50.250;8.312;2023-04-27T13:43:00;98882.28;;;22.21;29.68
27144;BME280;14672;50.250;8.312;2023-04-27T13:45:26;98880.81;;;22.39;30.26
27144;BME280;14672;50.250;8.312;2023-04-27T13:47:52;98883.66;;;22.44;30.65
27144;BME280;14672;50.250;8.312;2023-04-27T13:50:17;98885.31;;;22.64;29.89
27144;BME280;14672;50.250;8.312;2023-04-27T13:52:43;98891.50;;;22.79;30.24
27144;BME280;14672;50.250;8.312;2023-04-27T13:55:10;98883.53;;;22.85;29.54
27144;BME280;14672;50.250;8.312;2023-04-27T13:57:37;98888.09;;;22.81;29.18
27144;BME280;14672;50.250;8.312;2023-04-27T14:00:04;98880.88;;;22.87;28.84
27144;BME280;14672;50.250;8.312;2023-04-27T14:02:33;98874.75;;;22.97;29.15
27144;BME280;14672;50.250;8.312;2023-04-27T14:04:59;98876.59;;;22.70;29.38